Skip Navigation Links Skip Navigation Links

Current Weather

Long Island Mac Arthur, Islip, N.Y.

For information only: do not use for flight planning or navigation.
Latest weather
Observation time Saturday, January 23, 2021 9:56 PM EST
Local time Saturday, January 23, 2021 10:38 PM EST
Flight conditions Visual Meteorological Conditions
Winds
Wind direction Northwest (310°)
Wind speed 18 mph
Wind gusting to 30 mph
Peak wind speed 31 mph, 9:11 PM
Peak wind direction Northwest (320°)
Visibility 10 mi.
Sky condition
Ceiling unlimited
Sky clear
Temperature 24°F
Dewpoint 6°F
Altimeter 30.12 in.Hg
Pressure change last 3 hours-0.03 in.Hg
Pressure rising more slowly
Derived measurements
Relative humidity 45%
Wind chill 10°F
Density altitude -2488 ft.
Sea-level pressure 30.12 in.Hg
Remarks
Automated weather observing station with precipitation discriminator.
METAR KISP 240256Z 31016G26KT 10SM CLR M04/M14 A3012 RMK AO2 PK WND 32027/0211 SLP200 T10441144 51011

Settings

Location code

InnerDrive.Weather 4.0.6770.0 Release CLR 4.0.30319.42000
Copyright ©2018 Inner Drive Technology. All rights reserved. Portions Copyright ©1986-2018 David Braverman.

Find weather

Site navigation


Skip Navigation Links

Place info

Page info

PayPal - The safer, easier way to pay online!

Return home.

Copyright ©2021 Inner Drive Technology. Purveyors of fine, hand-crafted computer software. Page printed 2021-01-24T03:38:18 UTC.